createdAt,value
2022-10-11T00:02:16.945Z,12.49
2022-10-11T00:04:43.694Z,12.48
2022-10-11T00:07:10.682Z,12.62
2022-10-11T00:09:37.607Z,12.58
2022-10-11T00:12:04.517Z,12.47
2022-10-11T00:14:31.306Z,12.34
2022-10-11T00:16:57.977Z,12.38
2022-10-11T00:19:24.662Z,12.31
2022-10-11T00:21:51.322Z,12.17
2022-10-11T00:24:18.163Z,12.24
2022-10-11T00:26:46.965Z,12.54
2022-10-11T00:29:14.160Z,12.33
2022-10-11T00:31:40.954Z,12.29
2022-10-11T00:34:08.128Z,12.44
2022-10-11T00:36:34.902Z,12.30
2022-10-11T00:39:01.965Z,12.44
2022-10-11T00:41:28.636Z,12.26
2022-10-11T00:44:22.056Z,12.21
2022-10-11T00:47:12.628Z,12.18
2022-10-11T00:49:42.273Z,12.41
2022-10-11T00:52:15.634Z,12.26
2022-10-11T00:54:45.783Z,12.21
2022-10-11T00:57:16.773Z,12.05
2022-10-11T00:59:46.739Z,12.07
2022-10-11T01:02:13.801Z,12.19
2022-10-11T01:04:41.309Z,12.14
2022-10-11T01:07:09.375Z,12.09
2022-10-11T01:09:36.074Z,12.17
2022-10-11T01:12:06.120Z,12.10
2022-10-11T01:14:41.940Z,12.08
2022-10-11T01:17:47.603Z,12.06
2022-10-11T01:20:27.443Z,12.17
2022-10-11T01:23:12.586Z,12.20
2022-10-11T01:26:08.722Z,12.19
2022-10-11T01:28:43.761Z,12.29
2022-10-11T01:31:31.712Z,12.04
2022-10-11T01:34:04.385Z,11.95
2022-10-11T01:36:45.224Z,11.85
2022-10-11T01:39:20.237Z,11.90
2022-10-11T01:41:51.239Z,11.94
2022-10-11T01:44:18.700Z,11.97
2022-10-11T01:46:45.354Z,12.04
2022-10-11T01:49:12.073Z,11.93
2022-10-11T01:51:49.622Z,11.90
2022-10-11T01:54:19.052Z,11.88
2022-10-11T01:57:04.233Z,12.00
2022-10-11T01:59:33.907Z,11.92
2022-10-11T02:02:06.393Z,11.87
2022-10-11T02:04:43.239Z,11.84
2022-10-11T02:07:17.256Z,11.86
2022-10-11T02:10:03.584Z,11.85
2022-10-11T02:12:52.470Z,11.72
2022-10-11T02:15:21.309Z,11.66
2022-10-11T02:17:56.694Z,11.70
2022-10-11T02:20:26.330Z,11.70
2022-10-11T02:23:05.873Z,11.61
2022-10-11T02:25:36.157Z,11.57
2022-10-11T02:28:09.411Z,11.59
2022-10-11T02:30:37.423Z,11.56
2022-10-11T02:33:07.774Z,11.19
2022-10-11T02:35:42.172Z,11.42
2022-10-11T02:38:30.152Z,11.28
2022-10-11T02:41:06.922Z,11.23
2022-10-11T02:43:39.656Z,11.16
2022-10-11T02:46:08.475Z,11.22
2022-10-11T02:48:36.613Z,11.01
2022-10-11T02:51:05.017Z,10.96
2022-10-11T02:53:33.635Z,10.88
2022-10-11T02:56:00.321Z,10.90
2022-10-11T02:58:27.182Z,10.65
2022-10-11T03:00:53.923Z,10.48
2022-10-11T03:03:20.612Z,10.47
2022-10-11T03:05:47.333Z,10.33
2022-10-11T03:08:15.802Z,10.33
2022-10-11T03:10:43.013Z,10.33
2022-10-11T03:13:09.684Z,10.23
2022-10-11T03:15:36.397Z,10.16
2022-10-11T03:18:03.181Z,10.14
2022-10-11T03:20:29.873Z,10.06
2022-10-11T03:22:56.725Z,9.98
2022-10-11T03:25:23.400Z,10.01
2022-10-11T03:27:50.678Z,9.95
2022-10-11T03:30:18.479Z,9.90
2022-10-11T03:32:45.606Z,10.01
2022-10-11T03:35:12.501Z,9.97
2022-10-11T03:37:39.181Z,10.22
2022-10-11T03:40:08.432Z,10.22
2022-10-11T03:42:36.174Z,10.23
2022-10-11T03:45:05.162Z,10.23
2022-10-11T03:47:32.642Z,10.27
2022-10-11T03:49:59.295Z,10.18
2022-10-11T03:52:26.118Z,10.37
2022-10-11T03:54:52.979Z,10.41
2022-10-11T03:57:19.790Z,10.33
2022-10-11T03:59:46.736Z,10.30
2022-10-11T04:02:13.514Z,10.24
2022-10-11T04:04:40.366Z,10.30
2022-10-11T04:07:07.260Z,10.19
2022-10-11T04:09:34.021Z,9.97
2022-10-11T04:12:00.954Z,10.07
2022-10-11T04:14:27.634Z,10.03
2022-10-11T04:16:56.433Z,9.90
2022-10-11T04:19:26.397Z,9.81
2022-10-11T04:21:53.158Z,9.64
2022-10-11T04:24:19.877Z,9.64
2022-10-11T04:26:46.540Z,9.81
2022-10-11T04:29:13.269Z,9.71
2022-10-11T04:31:40.073Z,9.56
2022-10-11T04:34:06.972Z,9.53
2022-10-11T04:36:34.152Z,9.46
2022-10-11T04:39:01.765Z,9.43
2022-10-11T04:41:29.511Z,9.26
2022-10-11T04:43:56.265Z,9.09
2022-10-11T04:46:23.973Z,9.13
2022-10-11T04:48:51.955Z,9.12
2022-10-11T04:51:19.959Z,9.15
2022-10-11T04:53:48.053Z,8.99
2022-10-11T04:56:17.010Z,8.91
2022-10-11T04:58:44.063Z,8.84
2022-10-11T05:01:11.671Z,8.83
2022-10-11T05:03:38.472Z,8.80
2022-10-11T05:06:06.307Z,8.92
2022-10-11T05:08:33.953Z,8.80
2022-10-11T05:11:04.251Z,8.70
2022-10-11T05:13:31.657Z,8.61
2022-10-11T05:15:58.366Z,8.59
2022-10-11T05:18:25.445Z,8.60
2022-10-11T05:21:00.336Z,8.51
2022-10-11T05:23:28.518Z,8.60
2022-10-11T05:25:55.225Z,8.57
2022-10-11T05:28:21.958Z,8.53
2022-10-11T05:30:48.829Z,8.61
2022-10-11T05:33:15.916Z,8.60
2022-10-11T05:35:42.924Z,8.52
2022-10-11T05:38:10.452Z,8.51
2022-10-11T05:40:38.140Z,8.49
2022-10-11T05:43:05.460Z,8.52
2022-10-11T05:45:35.215Z,8.52
2022-10-11T05:48:01.874Z,8.40
2022-10-11T05:50:28.579Z,8.26
2022-10-11T05:52:55.952Z,8.57
2022-10-11T05:55:22.672Z,8.64
2022-10-11T05:57:52.893Z,8.50
2022-10-11T06:00:19.682Z,8.49
2022-10-11T06:02:46.372Z,8.40
2022-10-11T06:05:13.403Z,8.51
2022-10-11T06:07:40.177Z,8.44
2022-10-11T06:10:07.312Z,8.59
2022-10-11T06:12:34.438Z,8.63
2022-10-11T06:15:01.097Z,8.57
2022-10-11T06:17:27.982Z,8.74
2022-10-11T06:19:54.645Z,8.65
2022-10-11T06:22:21.576Z,8.57
2022-10-11T06:24:48.312Z,8.55
2022-10-11T06:27:15.082Z,8.55
2022-10-11T06:29:41.766Z,8.64
2022-10-11T06:32:08.502Z,8.70
2022-10-11T06:34:35.182Z,8.48
2022-10-11T06:37:01.922Z,8.64
2022-10-11T06:39:28.892Z,8.67
2022-10-11T06:41:55.535Z,8.72
2022-10-11T06:44:22.242Z,8.64
2022-10-11T06:46:48.976Z,8.61
2022-10-11T06:49:19.317Z,8.84
2022-10-11T06:51:49.035Z,8.72
2022-10-11T06:54:15.754Z,8.64
2022-10-11T06:56:42.475Z,8.77
2022-10-11T06:59:09.335Z,8.92
2022-10-11T07:01:36.201Z,8.94
2022-10-11T07:04:03.236Z,9.13
2022-10-11T07:06:31.436Z,9.06
2022-10-11T07:09:00.407Z,9.03
2022-10-11T07:11:28.572Z,9.16
2022-10-11T07:14:05.849Z,9.26
2022-10-11T07:16:32.591Z,9.28
2022-10-11T07:19:01.291Z,9.19
2022-10-11T07:21:30.043Z,9.02
2022-10-11T07:23:56.742Z,9.19
2022-10-11T07:26:23.742Z,9.28
2022-10-11T07:28:50.498Z,9.09
2022-10-11T07:31:20.677Z,9.34
2022-10-11T07:33:47.623Z,9.51
2022-10-11T07:36:16.533Z,9.60
2022-10-11T07:38:45.037Z,9.60
2022-10-11T07:41:12.431Z,9.68
2022-10-11T07:43:39.444Z,9.90
2022-10-11T07:46:07.315Z,10.16
2022-10-11T07:48:35.941Z,10.29
2022-10-11T07:51:14.592Z,10.74
2022-10-11T07:53:55.891Z,10.99
2022-10-11T07:56:28.053Z,11.44
2022-10-11T07:59:00.440Z,12.21
2022-10-11T08:01:28.334Z,12.56
2022-10-11T08:03:57.014Z,13.01
2022-10-11T08:06:29.339Z,13.43
2022-10-11T08:08:57.103Z,13.86
2022-10-11T08:11:27.605Z,14.35
2022-10-11T08:13:54.910Z,14.72
2022-10-11T08:16:21.942Z,14.91
2022-10-11T08:18:48.941Z,15.02
2022-10-11T08:21:18.916Z,15.29
2022-10-11T08:23:45.985Z,15.60
2022-10-11T08:26:12.801Z,15.97
2022-10-11T08:28:39.577Z,16.41
2022-10-11T08:31:07.092Z,16.38
2022-10-11T08:33:33.762Z,16.51
2022-10-11T08:36:05.818Z,16.59
2022-10-11T08:38:34.205Z,16.63
2022-10-11T08:41:01.589Z,16.59
2022-10-11T08:43:50.060Z,16.86
2022-10-11T08:46:21.412Z,17.11
2022-10-11T08:48:49.976Z,17.37
2022-10-11T08:51:25.666Z,17.73
2022-10-11T08:54:06.382Z,17.97
2022-10-11T08:56:37.851Z,18.01
2022-10-11T08:59:07.194Z,18.06
2022-10-11T09:01:34.244Z,18.10
2022-10-11T09:04:01.069Z,18.28
2022-10-11T09:06:52.371Z,18.51
2022-10-11T09:09:31.223Z,18.62
2022-10-11T09:12:07.112Z,18.52
2022-10-11T09:14:49.007Z,18.50
2022-10-11T09:17:28.182Z,18.23
2022-10-11T09:20:29.080Z,18.10
2022-10-11T09:23:14.432Z,18.21
2022-10-11T09:25:56.381Z,18.24
2022-10-11T09:29:11.294Z,18.16
2022-10-11T09:31:38.064Z,17.84
2022-10-11T09:34:14.310Z,17.81
2022-10-11T09:37:00.788Z,17.95
2022-10-11T09:39:32.863Z,18.25
2022-10-11T09:42:09.072Z,18.61
2022-10-11T09:44:57.525Z,19.03
2022-10-11T09:47:28.562Z,19.31
2022-10-11T09:50:01.832Z,19.54
2022-10-11T09:52:28.581Z,19.57
2022-10-11T09:54:58.316Z,19.61
2022-10-11T09:57:29.161Z,19.70
2022-10-11T10:00:20.416Z,19.59
2022-10-11T10:02:49.020Z,19.36
2022-10-11T10:05:27.012Z,19.19
2022-10-11T10:08:10.891Z,19.05
2022-10-11T10:11:06.910Z,18.79
2022-10-11T10:13:42.771Z,18.89
2022-10-11T10:16:19.760Z,19.21
2022-10-11T10:19:07.593Z,19.39
2022-10-11T10:21:37.890Z,19.48
2022-10-11T10:24:37.344Z,19.46
2022-10-11T10:27:16.955Z,19.35
2022-10-11T10:29:45.006Z,19.42
2022-10-11T10:32:26.284Z,19.76
2022-10-11T10:35:08.446Z,19.76
2022-10-11T10:37:44.096Z,19.40
2022-10-11T10:40:25.959Z,19.20
2022-10-11T10:42:52.920Z,19.37
2022-10-11T10:45:26.362Z,19.52
2022-10-11T10:48:27.444Z,19.20
2022-10-11T10:51:10.423Z,18.87
2022-10-11T10:54:05.474Z,18.64
2022-10-11T10:56:39.862Z,18.59
2022-10-11T10:59:27.921Z,18.37
2022-10-11T11:02:15.947Z,17.87
2022-10-11T11:05:04.782Z,17.86
2022-10-11T11:07:52.167Z,17.62
2022-10-11T11:10:23.695Z,17.85
2022-10-11T11:13:09.242Z,17.74
2022-10-11T11:15:46.852Z,17.43
2022-10-11T11:18:26.042Z,17.59
2022-10-11T11:21:27.834Z,17.66
2022-10-11T11:24:16.363Z,17.72
2022-10-11T11:26:46.110Z,17.64
2022-10-11T11:29:23.625Z,17.66
2022-10-11T11:32:02.428Z,17.73
2022-10-11T11:34:38.062Z,17.69
2022-10-11T11:37:14.081Z,17.60
2022-10-11T11:39:49.241Z,17.35
2022-10-11T11:42:18.305Z,17.34
2022-10-11T11:44:49.746Z,17.39
2022-10-11T11:47:20.864Z,17.50
2022-10-11T11:50:22.583Z,17.64
2022-10-11T11:53:16.613Z,17.81
2022-10-11T11:55:52.745Z,18.00
2022-10-11T11:58:43.914Z,18.22
2022-10-11T12:01:13.615Z,18.43
2022-10-11T12:03:42.992Z,18.68
2022-10-11T12:06:12.457Z,18.98
2022-10-11T12:08:42.612Z,19.33
2022-10-11T12:11:21.715Z,19.70
2022-10-11T12:13:51.034Z,19.78
2022-10-11T12:16:18.239Z,19.97
2022-10-11T12:18:59.102Z,20.14
2022-10-11T12:21:38.532Z,20.41
2022-10-11T12:24:20.370Z,20.12
2022-10-11T12:26:49.561Z,20.08
2022-10-11T12:29:20.755Z,20.09
2022-10-11T12:32:11.427Z,20.07
2022-10-11T12:37:18.936Z,19.63
2022-10-11T12:39:54.867Z,19.52
2022-10-11T12:42:30.113Z,19.27
2022-10-11T12:45:15.082Z,19.03
2022-10-11T12:48:09.648Z,18.55
2022-10-11T12:51:03.090Z,18.56
2022-10-11T12:53:37.953Z,18.23
2022-10-11T12:56:26.032Z,17.95
2022-10-11T12:59:02.986Z,17.86
2022-10-11T13:01:51.482Z,17.78
2022-10-11T13:04:22.344Z,17.86
2022-10-11T13:06:56.891Z,17.67
2022-10-11T13:09:30.371Z,17.52
2022-10-11T13:12:04.477Z,17.21
2022-10-11T13:14:37.002Z,17.12
2022-10-11T13:17:04.054Z,17.17
2022-10-11T13:19:33.046Z,17.11
2022-10-11T13:22:03.937Z,17.00
2022-10-11T13:24:39.946Z,16.98
2022-10-11T13:27:08.136Z,17.04
2022-10-11T13:29:37.991Z,16.99
2022-10-11T13:32:13.487Z,16.85
2022-10-11T13:34:42.001Z,16.83
2022-10-11T13:37:16.420Z,16.78
2022-10-11T13:39:43.451Z,16.66
2022-10-11T13:42:14.048Z,16.74
2022-10-11T13:44:42.272Z,16.82
2022-10-11T13:47:18.449Z,16.93
2022-10-11T13:49:48.326Z,16.95
2022-10-11T13:52:17.837Z,16.97
2022-10-11T13:54:53.733Z,17.00
2022-10-11T13:57:22.860Z,16.98
2022-10-11T13:59:49.864Z,16.95
2022-10-11T14:02:21.989Z,16.95
2022-10-11T14:04:49.183Z,16.84
2022-10-11T14:07:38.602Z,16.81
2022-10-11T14:10:06.474Z,16.78
2022-10-11T14:12:37.116Z,16.79
2022-10-11T14:15:06.252Z,16.87
2022-10-11T14:17:39.586Z,16.95
2022-10-11T14:20:15.569Z,16.83
2022-10-11T14:22:42.841Z,16.71
2022-10-11T14:25:09.642Z,16.71
2022-10-11T14:27:36.806Z,16.52
2022-10-11T14:30:24.603Z,16.52
2022-10-11T14:32:55.552Z,16.49
2022-10-11T14:35:25.442Z,16.39
2022-10-11T14:37:52.322Z,16.37
2022-10-11T14:40:24.642Z,16.32
2022-10-11T14:42:54.222Z,16.23
2022-10-11T14:45:22.751Z,15.93
2022-10-11T14:47:52.133Z,16.00
2022-10-11T14:51:11.165Z,16.30
2022-10-11T14:53:52.053Z,15.99
2022-10-11T14:56:21.635Z,16.00
2022-10-11T14:58:50.262Z,16.21
2022-10-11T15:01:29.279Z,16.24
2022-10-11T15:03:57.187Z,16.30
2022-10-11T15:06:44.656Z,16.04
2022-10-11T15:09:17.688Z,15.95
2022-10-11T15:11:57.190Z,16.02
2022-10-11T15:14:58.577Z,16.01
2022-10-11T15:17:31.892Z,16.00
2022-10-11T15:20:08.258Z,16.03
2022-10-11T15:22:35.848Z,16.06
2022-10-11T15:25:05.343Z,16.08
2022-10-11T15:27:32.097Z,16.01
2022-10-11T15:29:58.849Z,16.06
2022-10-11T15:32:25.530Z,16.19
2022-10-11T15:34:52.457Z,16.26
2022-10-11T15:37:19.174Z,15.97
2022-10-11T15:39:45.835Z,15.70
2022-10-11T15:42:18.313Z,15.54
2022-10-11T15:44:46.055Z,15.42
2022-10-11T15:47:13.052Z,15.36
2022-10-11T15:49:42.919Z,15.34
2022-10-11T15:52:09.455Z,15.29
2022-10-11T15:54:36.377Z,15.25
2022-10-11T15:57:06.197Z,15.15
2022-10-11T15:59:32.758Z,15.19
2022-10-11T16:01:59.524Z,15.10
2022-10-11T16:04:26.282Z,15.10
2022-10-11T16:06:53.120Z,14.90
2022-10-11T16:09:20.361Z,14.95
2022-10-11T16:11:47.055Z,15.01
2022-10-11T16:14:13.796Z,15.01
2022-10-11T16:16:40.510Z,14.94
2022-10-11T16:19:07.215Z,14.66
2022-10-11T16:21:34.244Z,14.61
2022-10-11T16:24:01.045Z,14.63
2022-10-11T16:26:27.735Z,14.56
2022-10-11T16:28:56.861Z,14.61
2022-10-11T16:31:23.625Z,14.65
2022-10-11T16:33:52.937Z,14.62
2022-10-11T16:36:32.086Z,14.66
2022-10-11T16:39:00.448Z,14.75
2022-10-11T16:41:27.316Z,14.59
2022-10-11T16:43:55.266Z,14.62
2022-10-11T16:46:25.599Z,14.55
2022-10-11T16:48:55.883Z,14.51
2022-10-11T16:51:24.305Z,14.63
2022-10-11T16:53:52.621Z,14.67
2022-10-11T16:56:20.710Z,14.70
2022-10-11T16:58:47.619Z,14.49
2022-10-11T17:01:14.393Z,14.12
2022-10-11T17:03:41.158Z,14.19
2022-10-11T17:06:08.813Z,14.23
2022-10-11T17:08:35.871Z,14.20
2022-10-11T17:11:03.405Z,14.26
2022-10-11T17:13:31.026Z,14.24
2022-10-11T17:15:57.905Z,14.21
2022-10-11T17:18:24.911Z,14.24
2022-10-11T17:21:00.015Z,14.27
2022-10-11T17:23:26.768Z,14.24
2022-10-11T17:25:53.647Z,14.47
2022-10-11T17:28:20.559Z,14.22
2022-10-11T17:30:55.277Z,14.19
2022-10-11T17:33:23.077Z,14.31
2022-10-11T17:35:50.289Z,13.94
2022-10-11T17:38:20.134Z,14.10
2022-10-11T17:43:18.755Z,14.02
2022-10-11T17:45:55.704Z,14.03
2022-10-11T17:48:22.594Z,14.03
2022-10-11T17:50:50.752Z,13.94
2022-10-11T17:53:23.943Z,13.86
2022-10-11T17:55:50.878Z,13.81
2022-10-11T17:58:18.594Z,13.87
2022-10-11T18:00:45.811Z,13.91
2022-10-11T18:03:12.610Z,13.98
2022-10-11T18:05:40.836Z,13.81
2022-10-11T18:08:08.273Z,13.82
2022-10-11T18:10:37.686Z,13.80
2022-10-11T18:13:06.881Z,13.77
2022-10-11T18:15:35.350Z,13.75
2022-10-11T18:18:05.349Z,13.67
2022-10-11T18:20:32.535Z,13.68
2022-10-11T18:23:00.285Z,13.39
2022-10-11T18:25:27.058Z,13.52
2022-10-11T18:27:54.673Z,13.51
2022-10-11T18:30:21.960Z,13.55
2022-10-11T18:35:24.457Z,13.48
2022-10-11T18:37:56.389Z,13.41
2022-10-11T18:40:26.264Z,13.73
2022-10-11T18:42:53.466Z,13.61
2022-10-11T18:45:20.231Z,13.47
2022-10-11T18:47:49.833Z,13.31
2022-10-11T18:50:19.206Z,13.26
2022-10-11T18:52:48.998Z,13.21
2022-10-11T18:55:16.502Z,13.13
2022-10-11T18:57:43.748Z,13.12
2022-10-11T19:00:37.442Z,13.06
2022-10-11T19:02:59.362Z,13.23
2022-10-11T19:05:28.027Z,13.04
2022-10-11T19:07:55.359Z,12.94
2022-10-11T19:10:22.760Z,12.79
2022-10-11T19:12:50.067Z,12.81
2022-10-11T19:15:17.392Z,12.70
2022-10-11T19:17:44.384Z,12.77
2022-10-11T19:20:12.932Z,12.81
2022-10-11T19:22:40.148Z,12.85
2022-10-11T19:25:07.364Z,12.88
2022-10-11T19:27:34.434Z,12.79
2022-10-11T19:30:01.542Z,12.72
2022-10-11T19:32:29.444Z,12.60
2022-10-11T19:34:56.986Z,12.64
2022-10-11T19:37:24.502Z,12.38
2022-10-11T19:39:52.142Z,12.50
2022-10-11T19:42:19.392Z,12.55
2022-10-11T19:44:46.829Z,12.60
2022-10-11T19:47:13.772Z,12.57
2022-10-11T19:49:40.813Z,12.61
2022-10-11T19:52:10.079Z,12.57
2022-10-11T19:54:37.087Z,12.58
2022-10-11T19:57:05.090Z,12.59
2022-10-11T19:59:32.646Z,12.42
2022-10-11T20:02:00.116Z,12.54
2022-10-11T20:04:50.964Z,12.65
2022-10-11T20:07:14.500Z,12.76
2022-10-11T20:09:46.836Z,12.72
2022-10-11T20:12:13.852Z,12.61
2022-10-11T20:14:40.798Z,12.59
2022-10-11T20:17:08.659Z,12.59
2022-10-11T20:19:35.753Z,12.60
2022-10-11T20:22:02.954Z,12.60
2022-10-11T20:24:33.525Z,12.73
2022-10-11T20:27:03.305Z,12.89
2022-10-11T20:29:30.176Z,12.63
2022-10-11T20:31:59.141Z,12.63
2022-10-11T20:34:27.482Z,12.54
2022-10-11T20:36:54.750Z,12.56
2022-10-11T20:39:22.262Z,12.51
2022-10-11T20:41:48.971Z,12.57
2022-10-11T20:44:17.964Z,12.76
2022-10-11T20:46:45.001Z,12.81
2022-10-11T20:49:12.114Z,12.67
2022-10-11T20:51:41.591Z,12.67
2022-10-11T20:54:08.642Z,12.48
2022-10-11T20:56:36.917Z,12.56
2022-10-11T20:59:05.236Z,12.50
2022-10-11T21:01:35.274Z,12.58
2022-10-11T21:04:02.338Z,12.60
2022-10-11T21:06:30.536Z,12.60
2022-10-11T21:08:59.141Z,12.55
2022-10-11T21:11:27.367Z,12.53
2022-10-11T21:13:58.396Z,12.48
2022-10-11T21:16:26.180Z,12.41
2022-10-11T21:18:54.676Z,12.51
2022-10-11T21:21:23.567Z,12.47
2022-10-11T21:23:53.934Z,12.44
2022-10-11T21:26:20.867Z,12.36
2022-10-11T21:28:48.004Z,12.34
2022-10-11T21:31:17.148Z,12.28
2022-10-11T21:33:44.899Z,12.28
2022-10-11T21:36:17.251Z,12.36
2022-10-11T21:38:44.631Z,12.34
2022-10-11T21:41:15.697Z,12.39
2022-10-11T21:43:42.402Z,12.38
2022-10-11T21:46:19.817Z,12.50
2022-10-11T21:48:47.043Z,12.42
2022-10-11T21:51:29.822Z,12.33
2022-10-11T21:53:59.625Z,12.19
2022-10-11T21:56:27.631Z,12.27
2022-10-11T21:58:54.842Z,12.24
2022-10-11T22:01:22.603Z,12.26
2022-10-11T22:48:50.514Z,12.00
2022-10-11T22:51:17.551Z,12.10
2022-10-11T22:53:44.454Z,12.14
2022-10-11T22:56:11.624Z,12.03
2022-10-11T22:58:38.574Z,12.18
2022-10-11T23:03:33.372Z,12.32
2022-10-11T23:06:00.146Z,12.53
2022-10-11T23:08:26.865Z,12.44
2022-10-11T23:10:53.777Z,12.55
2022-10-11T23:13:21.216Z,12.77
2022-10-11T23:15:48.024Z,12.78
2022-10-11T23:18:17.734Z,12.82
2022-10-11T23:20:44.483Z,12.88
2022-10-11T23:23:11.221Z,12.85
2022-10-11T23:25:37.966Z,12.81
2022-10-11T23:28:04.951Z,12.91
2022-10-11T23:30:31.806Z,12.90
2022-10-11T23:32:58.479Z,12.89
2022-10-11T23:35:25.568Z,12.96
2022-10-11T23:37:55.256Z,12.73
2022-10-11T23:40:21.989Z,13.02
2022-10-11T23:42:48.696Z,13.03
2022-10-11T23:45:15.734Z,12.97
2022-10-11T23:47:42.471Z,12.85
2022-10-11T23:50:09.304Z,12.85
2022-10-11T23:52:36.208Z,12.86
2022-10-11T23:55:02.985Z,12.88
2022-10-11T23:57:29.748Z,12.87
2022-10-11T23:59:56.459Z,12.92
